Time;durP1;ratioP1;P1;durP2;ratioP2;P2;SDS_P1;SDS_P2;PMS_P1;PMS_P2;Temp;Humidity;BMP_temperature;BMP_pressure;BME280_temperature;BME280_humidity;BME280_pressure;Samples;Min_cycle;Max_cycle;Signal;HPM_P1;HPM_P2
2022/08/28 00:02:04;;;;;;;8.13;2.60;;;15.80;77.60;;;;;;5077149;28;20107;-90
2022/08/28 00:04:30;;;;;;;6.60;2.17;;;15.70;77.70;;;;;;5077244;28;20443;-92
2022/08/28 00:06:55;;;;;;;8.10;2.53;;;15.70;77.80;;;;;;5078390;28;20048;-92
2022/08/28 00:09:21;;;;;;;7.65;2.45;;;15.70;78.00;;;;;;5078271;28;20499;-93
2022/08/28 00:11:48;;;;;;;8.50;2.55;;;15.70;78.10;;;;;;5077061;28;20025;-90
2022/08/28 00:14:14;;;;;;;9.80;3.15;;;15.60;78.20;;;;;;5078147;28;20029;-91
2022/08/28 00:16:40;;;;;;;8.52;2.83;;;15.60;78.40;;;;;;5060664;28;20070;-92
2022/08/28 00:19:05;;;;;;;10.25;2.58;;;15.50;78.50;;;;;;5078878;28;20439;-92
2022/08/28 00:21:32;;;;;;;9.63;2.90;;;15.50;78.70;;;;;;5077234;28;20039;-90
2022/08/28 00:23:58;;;;;;;7.55;2.47;;;15.50;78.90;;;;;;5077372;28;20025;-92
2022/08/28 00:29:08;;;;;;;6.30;2.75;;;15.40;79.30;;;;;;5085007;28;20086;-92
2022/08/28 00:31:37;;;;;;;8.05;2.67;;;15.30;79.40;;;;;;5068143;28;20024;-91
2022/08/28 00:34:03;;;;;;;14.57;2.80;;;15.30;79.60;;;;;;5088106;28;20115;-90
2022/08/28 00:36:29;;;;;;;9.75;2.47;;;15.30;79.80;;;;;;5079132;28;20063;-88
2022/08/28 00:38:55;;;;;;;9.15;2.42;;;15.30;80.00;;;;;;5059226;28;20564;-87
2022/08/28 00:41:21;;;;;;;8.93;2.92;;;15.20;80.10;;;;;;5080220;28;20032;-92
2022/08/28 00:43:48;;;;;;;7.03;2.22;;;15.20;80.30;;;;;;5085802;28;20048;-91
2022/08/28 00:46:18;;;;;;;12.45;3.17;;;15.20;80.40;;;;;;5085866;28;20029;-91
2022/08/28 00:48:44;;;;;;;11.05;2.50;;;15.20;80.70;;;;;;5079617;28;20016;-92
2022/08/28 00:53:56;;;;;;;7.07;2.25;;;15.10;80.90;;;;;;5077751;28;20123;-91
2022/08/28 00:56:23;;;;;;;7.43;2.28;;;15.10;81.00;;;;;;5057986;28;20028;-87
2022/08/28 00:58:51;;;;;;;10.15;3.05;;;15.10;81.10;;;;;;5075517;28;20053;-89
2022/08/28 01:01:17;;;;;;;9.88;2.70;;;15.00;81.20;;;;;;5075953;28;20040;-93
2022/08/28 01:03:43;;;;;;;9.25;2.50;;;15.00;81.40;;;;;;5076738;28;20107;-95
2022/08/28 01:06:10;;;;;;;14.77;2.72;;;15.00;81.60;;;;;;5076238;28;20066;-96
2022/08/28 01:08:39;;;;;;;6.85;2.60;;;14.90;81.70;;;;;;5059951;28;20362;-95
2022/08/28 01:11:06;;;;;;;9.15;3.35;;;14.90;81.90;;;;;;5077900;28;20101;-93
2022/08/28 01:13:33;;;;;;;6.47;2.83;;;14.90;82.00;;;;;;5076246;28;20078;-94
2022/08/28 01:16:00;;;;;;;10.38;2.60;;;14.80;82.00;;;;;;5077593;28;20420;-95
2022/08/28 01:18:26;;;;;;;8.93;2.67;;;14.80;82.20;;;;;;5061272;28;20056;-94
2022/08/28 01:21:07;;;;;;;7.38;2.22;;;14.80;82.30;;;;;;5079333;28;20072;-93
2022/08/28 01:24:10;;;;;;;13.68;3.08;;;14.70;82.50;;;;;;5079020;28;20074;-94
2022/08/28 01:26:37;;;;;;;6.28;2.47;;;14.70;82.70;;;;;;5039653;28;20029;-93
2022/08/28 01:29:03;;;;;;;11.32;3.10;;;14.70;82.70;;;;;;5073531;28;20045;-91
2022/08/28 01:31:30;;;;;;;6.30;2.15;;;14.70;82.80;;;;;;5058890;28;20032;-90
2022/08/28 01:34:00;;;;;;;9.63;2.80;;;14.60;82.90;;;;;;5075645;28;20141;-94
2022/08/28 01:36:27;;;;;;;8.88;2.50;;;14.60;83.20;;;;;;5060898;28;20032;-94
2022/08/28 01:39:00;;;;;;;7.00;2.53;;;14.60;83.20;;;;;;5076128;28;20048;-93
2022/08/28 01:41:25;;;;;;;8.93;2.92;;;14.60;83.40;;;;;;5076961;28;20025;-89
2022/08/28 01:43:52;;;;;;;11.23;2.33;;;14.60;83.50;;;;;;5075969;28;20029;-89
2022/08/28 01:46:18;;;;;;;7.63;2.83;;;14.50;83.50;;;;;;5074913;28;20105;-88
2022/08/28 01:48:44;;;;;;;12.85;2.85;;;14.50;83.70;;;;;;5058304;28;20075;-89
2022/08/28 01:51:10;;;;;;;12.77;2.35;;;14.50;83.80;;;;;;5076522;28;20028;-88
2022/08/28 01:53:37;;;;;;;7.95;2.05;;;14.40;83.90;;;;;;5060008;28;20041;-89
2022/08/28 01:56:08;;;;;;;7.95;2.63;;;14.40;84.00;;;;;;5079439;28;20103;-89
2022/08/28 01:58:34;;;;;;;11.73;2.45;;;14.40;84.10;;;;;;5079235;28;20504;-89
2022/08/28 02:01:00;;;;;;;9.20;2.50;;;14.40;84.20;;;;;;5077467;28;20032;-89
2022/08/28 02:03:26;;;;;;;11.18;2.58;;;14.30;84.30;;;;;;5064983;28;20507;-89
2022/08/28 02:05:52;;;;;;;8.25;2.50;;;14.30;84.80;;;;;;5084587;28;20043;-89
2022/08/28 02:08:18;;;;;;;9.07;2.42;;;14.30;84.60;;;;;;5071047;28;20028;-89
2022/08/28 02:10:44;;;;;;;6.68;2.33;;;14.20;84.60;;;;;;5088646;28;20080;-90
2022/08/28 02:13:12;;;;;;;8.82;2.30;;;14.20;84.80;;;;;;5079968;28;20024;-89
2022/08/28 02:15:39;;;;;;;11.80;2.97;;;14.20;84.90;;;;;;5080924;28;20028;-89
2022/08/28 02:18:05;;;;;;;7.63;2.10;;;14.30;85.10;;;;;;5082487;28;20091;-89
2022/08/28 02:20:32;;;;;;;6.25;1.98;;;14.10;85.10;;;;;;5061051;28;20496;-89
2022/08/28 02:22:59;;;;;;;8.73;2.58;;;14.10;85.20;;;;;;5077211;28;20034;-89
2022/08/28 02:25:26;;;;;;;11.25;2.88;;;14.10;85.30;;;;;;5082602;28;20096;-94
2022/08/28 02:27:51;;;;;;;6.20;2.38;;;14.00;85.30;;;;;;5085652;28;20036;-93
2022/08/28 02:30:17;;;;;;;10.13;2.38;;;14.00;85.50;;;;;;5087578;28;20039;-90
2022/08/28 02:32:45;;;;;;;11.95;2.47;;;13.90;85.50;;;;;;5086045;28;20064;-90
2022/08/28 02:35:15;;;;;;;8.93;2.67;;;13.90;85.60;;;;;;5083687;28;20089;-90
2022/08/28 02:37:43;;;;;;;7.43;2.97;;;13.90;85.80;;;;;;5088244;28;20036;-89
2022/08/28 02:40:10;;;;;;;7.25;2.13;;;13.90;85.80;;;;;;5086398;28;20035;-92
2022/08/28 02:42:36;;;;;;;8.35;2.58;;;13.90;85.90;;;;;;5085972;28;20030;-91
2022/08/28 02:45:02;;;;;;;9.38;2.00;;;13.80;86.00;;;;;;5085562;28;20100;-89
2022/08/28 02:47:28;;;;;;;12.05;2.80;;;13.80;86.10;;;;;;5082091;28;20449;-90
2022/08/28 02:49:54;;;;;;;7.47;1.80;;;13.80;86.20;;;;;;5071094;28;20032;-89
2022/08/28 02:52:20;;;;;;;14.80;2.42;;;13.80;86.40;;;;;;5072419;28;20028;-88
2022/08/28 02:54:46;;;;;;;6.97;2.42;;;13.70;86.40;;;;;;5084999;28;20029;-87
2022/08/28 02:57:13;;;;;;;7.25;2.17;;;13.70;86.60;;;;;;5086311;28;20051;-89
2022/08/28 02:59:38;;;;;;;18.23;2.47;;;13.70;86.70;;;;;;5084585;28;20403;-89
2022/08/28 03:02:06;;;;;;;7.38;2.13;;;13.60;86.80;;;;;;5060545;28;20028;-91
2022/08/28 03:04:34;;;;;;;10.40;2.38;;;13.70;86.90;;;;;;5058816;28;20036;-90
2022/08/28 03:07:00;;;;;;;10.60;2.50;;;13.60;87.00;;;;;;5074720;28;20077;-91
2022/08/28 03:09:26;;;;;;;6.68;2.00;;;13.60;87.10;;;;;;5075169;28;20021;-93
2022/08/28 03:11:53;;;;;;;7.30;2.40;;;13.60;87.20;;;;;;5080735;28;20028;-93
2022/08/28 03:14:19;;;;;;;8.80;2.40;;;13.60;87.20;;;;;;5075581;28;20124;-92
2022/08/28 03:16:45;;;;;;;8.88;2.08;;;13.50;87.20;;;;;;5073986;28;20036;-93
2022/08/28 03:19:11;;;;;;;10.40;2.60;;;13.50;87.30;;;;;;5078914;28;20119;-93
2022/08/28 03:21:37;;;;;;;8.45;2.55;;;13.50;87.40;;;;;;5057870;28;20025;-92
2022/08/28 03:24:03;;;;;;;6.82;2.53;;;13.50;87.50;;;;;;5075663;28;20028;-90
2022/08/28 03:26:29;;;;;;;5.90;1.90;;;13.40;87.60;;;;;;5073549;28;20020;-89
2022/08/28 03:28:56;;;;;;;9.82;2.25;;;13.40;87.80;;;;;;5056874;28;20365;-91
2022/08/28 03:31:24;;;;;;;9.50;2.50;;;13.50;87.90;;;;;;5055974;28;20040;-89
2022/08/28 03:33:51;;;;;;;6.82;2.53;;;13.40;88.00;;;;;;5056074;28;20020;-88
2022/08/28 03:36:21;;;;;;;11.38;3.17;;;13.40;88.00;;;;;;5055840;28;20028;-87
2022/08/28 03:38:48;;;;;;;10.20;2.88;;;13.40;88.10;;;;;;5072885;28;20060;-85
2022/08/28 03:41:17;;;;;;;7.25;2.22;;;13.40;88.20;;;;;;5072426;28;20020;-86
2022/08/28 03:43:43;;;;;;;8.73;2.60;;;13.30;88.30;;;;;;5072206;28;20024;-87
2022/08/28 03:46:14;;;;;;;10.32;2.58;;;13.40;88.40;;;;;;5072592;28;20074;-87
2022/08/28 03:48:41;;;;;;;7.53;2.17;;;13.30;88.50;;;;;;5072613;28;20464;-89
2022/08/28 03:51:08;;;;;;;7.43;2.08;;;13.30;88.50;;;;;;5073661;28;20029;-93
2022/08/28 03:53:34;;;;;;;7.10;2.35;;;13.30;88.70;;;;;;5073571;28;20468;-92
2022/08/28 03:56:01;;;;;;;9.38;2.47;;;13.30;88.70;;;;;;5056310;28;20138;-92
2022/08/28 03:58:26;;;;;;;6.25;2.03;;;13.30;88.80;;;;;;5056004;28;20045;-90
2022/08/28 04:00:53;;;;;;;10.40;2.60;;;13.30;88.90;;;;;;5056712;28;20027;-90
2022/08/28 04:03:19;;;;;;;6.80;2.38;;;13.30;89.10;;;;;;5073554;28;20021;-91
2022/08/28 04:05:46;;;;;;;6.53;2.08;;;13.20;89.10;;;;;;5073398;28;20029;-95
2022/08/28 04:08:17;;;;;;;8.80;2.25;;;13.20;89.20;;;;;;5074228;28;20033;-94
2022/08/28 04:10:43;;;;;;;8.15;2.10;;;13.20;89.30;;;;;;5073444;28;20548;-94
2022/08/28 04:13:10;;;;;;;8.73;2.30;;;13.20;89.40;;;;;;5074306;28;20162;-94
2022/08/28 04:15:36;;;;;;;13.13;2.30;;;13.20;89.50;;;;;;5074613;28;20020;-94
2022/08/28 04:18:02;;;;;;;10.48;2.25;;;13.20;89.50;;;;;;5073796;28;20059;-91
2022/08/28 04:20:28;;;;;;;8.10;2.15;;;13.10;89.50;;;;;;5057148;28;20032;-92
2022/08/28 04:22:54;;;;;;;7.05;1.95;;;13.10;89.60;;;;;;5079475;28;20040;-93
2022/08/28 04:25:20;;;;;;;13.30;2.88;;;13.10;89.70;;;;;;5078248;28;20051;-93
2022/08/28 04:27:46;;;;;;;7.03;2.63;;;13.10;89.80;;;;;;5059348;28;20029;-93
2022/08/28 04:30:12;;;;;;;8.02;2.25;;;13.10;89.90;;;;;;5077349;28;20464;-91
2022/08/28 04:32:38;;;;;;;9.13;2.47;;;13.10;90.00;;;;;;5079897;28;20481;-93
2022/08/28 04:35:06;;;;;;;8.02;2.15;;;13.00;90.00;;;;;;5079737;28;20480;-94
2022/08/28 04:37:32;;;;;;;6.72;1.90;;;13.10;90.10;;;;;;5086437;28;20037;-92
2022/08/28 04:39:58;;;;;;;7.93;2.33;;;13.00;90.10;;;;;;5066297;28;20096;-94
2022/08/28 04:42:24;;;;;;;7.53;1.90;;;13.00;90.10;;;;;;5082265;28;20029;-92
2022/08/28 04:44:54;;;;;;;7.80;2.22;;;13.00;90.10;;;;;;5079106;28;20117;-93
2022/08/28 04:47:22;;;;;;;11.60;2.47;;;13.00;90.20;;;;;;5061715;28;20055;-94
2022/08/28 04:49:49;;;;;;;6.82;2.30;;;13.00;90.30;;;;;;5060445;28;20033;-94
2022/08/28 04:52:14;;;;;;;9.60;2.03;;;13.00;90.30;;;;;;5079263;28;20055;-94
2022/08/28 04:54:40;;;;;;;6.60;2.13;;;13.00;90.30;;;;;;5079373;28;20029;-95
2022/08/28 04:57:06;;;;;;;8.07;2.00;;;13.00;90.40;;;;;;5077441;28;20033;-94
2022/08/28 04:59:31;;;;;;;10.45;1.98;;;13.00;90.40;;;;;;5077071;28;20056;-93
2022/08/28 05:01:57;;;;;;;6.85;2.20;;;13.00;90.50;;;;;;5062901;28;20021;-90
2022/08/28 05:04:23;;;;;;;5.85;1.95;;;12.90;90.50;;;;;;5042040;28;20029;-92
2022/08/28 05:06:48;;;;;;;11.27;2.67;;;13.00;90.60;;;;;;5039825;28;20481;-90
2022/08/28 05:09:17;;;;;;;8.48;1.92;;;13.00;90.60;;;;;;5057285;28;20512;-93
2022/08/28 05:11:43;;;;;;;6.55;2.15;;;13.00;90.60;;;;;;5058622;28;20025;-95
2022/08/28 05:14:10;;;;;;;9.35;2.45;;;13.00;90.70;;;;;;5063136;28;20029;-95
2022/08/28 05:16:45;;;;;;;7.45;2.65;;;13.00;90.70;;;;;;5060499;28;20027;-92
2022/08/28 05:19:11;;;;;;;9.98;2.38;;;13.00;90.70;;;;;;5069018;28;20032;-91
2022/08/28 05:21:37;;;;;;;12.20;2.75;;;13.00;90.70;;;;;;5058352;28;20090;-92
2022/08/28 05:24:04;;;;;;;8.13;2.00;;;13.00;90.70;;;;;;5041645;28;20055;-91
2022/08/28 05:26:29;;;;;;;7.82;1.98;;;13.00;90.80;;;;;;5073687;28;20115;-90
2022/08/28 05:28:56;;;;;;;9.02;2.42;;;13.10;90.90;;;;;;5059248;28;20067;-91
2022/08/28 05:31:24;;;;;;;6.45;2.22;;;13.00;90.90;;;;;;5058487;28;20522;-88
2022/08/28 05:33:51;;;;;;;7.15;2.35;;;13.00;90.90;;;;;;5075888;28;20057;-91
2022/08/28 05:36:18;;;;;;;5.32;2.40;;;13.10;91.00;;;;;;5076875;28;20059;-90
2022/08/28 05:38:44;;;;;;;9.82;2.88;;;13.10;91.00;;;;;;5075302;28;20620;-92
2022/08/28 05:41:10;;;;;;;6.03;1.90;;;13.10;91.00;;;;;;5076455;28;20060;-89
2022/08/28 05:43:37;;;;;;;5.25;1.85;;;13.10;91.00;;;;;;5076383;28;20035;-94
2022/08/28 05:46:08;;;;;;;10.20;2.20;;;13.20;91.10;;;;;;5075913;28;20021;-94
2022/08/28 05:48:35;;;;;;;8.88;2.15;;;13.30;91.20;;;;;;5076256;28;20020;-92
2022/08/28 05:51:04;;;;;;;9.25;1.80;;;13.30;91.20;;;;;;5077234;28;20028;-93
2022/08/28 05:53:30;;;;;;;8.32;2.35;;;13.30;91.20;;;;;;5075911;28;20028;-89
2022/08/28 05:55:55;;;;;;;8.88;2.15;;;13.30;91.20;;;;;;5062017;28;20488;-92
2022/08/28 05:58:32;;;;;;;6.88;2.00;;;13.40;91.30;;;;;;5062167;28;20040;-88
2022/08/28 06:01:14;;;;;;;5.72;1.85;;;13.40;91.30;;;;;;5063592;28;20035;-91
2022/08/28 06:03:41;;;;;;;5.60;1.70;;;13.50;91.30;;;;;;5076127;28;20124;-91
2022/08/28 06:06:08;;;;;;;10.15;2.40;;;13.50;91.30;;;;;;5082650;28;20021;-89
2022/08/28 06:08:35;;;;;;;7.95;1.50;;;13.50;91.30;;;;;;5085045;28;20026;-93
2022/08/28 06:11:01;;;;;;;8.20;1.65;;;13.60;91.30;;;;;;5082838;28;20040;-90
2022/08/28 06:13:28;;;;;;;6.90;2.10;;;13.60;91.40;;;;;;5077455;28;20431;-88
2022/08/28 06:15:55;;;;;;;7.35;1.70;;;13.70;91.40;;;;;;5074948;28;20056;-90
2022/08/28 06:18:21;;;;;;;7.53;1.70;;;13.70;91.40;;;;;;5075487;28;20127;-90
2022/08/28 06:20:47;;;;;;;8.88;1.90;;;13.80;91.50;;;;;;5075964;28;20025;-93
2022/08/28 06:23:18;;;;;;;11.38;2.53;;;13.90;91.50;;;;;;5075009;28;20082;-88
2022/08/28 06:25:47;;;;;;;9.95;2.00;;;13.90;91.50;;;;;;5074289;28;20048;-91
2022/08/28 06:28:27;;;;;;;7.68;1.73;;;14.00;91.50;;;;;;5076275;28;20407;-92
2022/08/28 06:30:53;;;;;;;6.50;1.77;;;14.10;91.50;;;;;;5053775;28;20025;-92
2022/08/28 06:33:20;;;;;;;5.90;1.83;;;14.10;91.50;;;;;;5057823;28;20124;-94
2022/08/28 06:35:48;;;;;;;6.30;1.85;;;14.20;91.50;;;;;;5076210;28;20120;-93
2022/08/28 06:38:16;;;;;;;8.10;1.77;;;14.30;91.50;;;;;;5074512;28;20043;-92
2022/08/28 06:40:45;;;;;;;11.10;1.85;;;14.40;91.50;;;;;;5058758;28;20385;-90
2022/08/28 06:43:12;;;;;;;9.57;1.77;;;14.40;91.50;;;;;;5074682;28;20028;-94
2022/08/28 06:45:43;;;;;;;8.15;1.42;;;14.50;91.50;;;;;;5074004;28;20047;-92
2022/08/28 06:48:11;;;;;;;5.18;1.40;;;14.60;91.40;;;;;;5074844;28;20024;-94
2022/08/28 06:50:45;;;;;;;5.78;1.55;;;14.60;91.40;;;;;;5075669;28;20031;-93
2022/08/28 06:53:13;;;;;;;10.07;1.77;;;14.70;91.30;;;;;;5076002;28;20028;-92
2022/08/28 06:55:39;;;;;;;11.55;1.73;;;14.80;91.30;;;;;;5074469;28;20024;-91
2022/08/28 06:58:06;;;;;;;6.50;1.48;;;14.90;91.20;;;;;;5058664;28;20044;-91
2022/08/28 07:00:34;;;;;;;5.70;1.42;;;14.90;91.20;;;;;;5075499;28;20052;-92
2022/08/28 07:03:00;;;;;;;7.55;1.42;;;15.00;91.20;;;;;;5043896;28;20028;-91
2022/08/28 07:05:26;;;;;;;5.13;1.20;;;15.10;91.20;;;;;;5061414;28;20028;-91
2022/08/28 07:07:52;;;;;;;6.20;1.35;;;15.20;91.10;;;;;;5055342;28;20541;-92
2022/08/28 07:10:18;;;;;;;8.32;1.10;;;15.20;91.00;;;;;;5038146;28;20183;-94
2022/08/28 07:12:43;;;;;;;8.80;1.52;;;15.30;90.90;;;;;;5054853;28;20052;-92
2022/08/28 07:15:09;;;;;;;5.90;1.10;;;15.40;90.80;;;;;;5055277;28;20064;-93
2022/08/28 07:17:35;;;;;;;7.88;1.83;;;15.50;90.70;;;;;;5039578;28;20054;-92
2022/08/28 07:20:03;;;;;;;5.30;1.25;;;15.50;90.60;;;;;;5056274;28;20029;-93
2022/08/28 07:22:28;;;;;;;4.13;1.17;;;15.60;90.40;;;;;;5052706;28;20032;-84
2022/08/28 07:24:56;;;;;;;9.07;1.50;;;15.70;90.30;;;;;;5035045;28;20033;-83
2022/08/28 07:27:23;;;;;;;6.22;1.55;;;15.80;90.10;;;;;;5052818;28;20469;-83
2022/08/28 07:29:51;;;;;;;4.47;0.90;;;15.90;90.00;;;;;;5051783;28;20021;-83
2022/08/28 07:32:17;;;;;;;4.00;1.10;;;15.90;89.90;;;;;;5051579;28;20136;-83
2022/08/28 07:34:43;;;;;;;4.32;1.10;;;16.00;89.60;;;;;;5052900;28;20028;-83
2022/08/28 07:37:09;;;;;;;7.03;1.05;;;16.00;89.40;;;;;;5071369;28;20033;-84
2022/08/28 07:39:35;;;;;;;5.15;0.98;;;16.10;89.20;;;;;;5071387;28;20070;-83
2022/08/28 07:42:01;;;;;;;6.90;1.20;;;16.20;88.90;;;;;;5066594;28;20087;-84
2022/08/28 07:47:11;;;;;;;4.65;1.15;;;16.20;88.50;;;;;;5069106;28;20091;-84
2022/08/28 07:49:38;;;;;;;5.07;1.10;;;16.30;88.40;;;;;;5067430;28;20461;-83
2022/08/28 07:52:05;;;;;;;9.70;1.45;;;16.40;88.20;;;;;;5071574;28;20029;-84
2022/08/28 07:54:32;;;;;;;6.35;1.45;;;16.40;87.90;;;;;;5071178;28;20384;-84
2022/08/28 07:56:57;;;;;;;9.25;1.42;;;16.50;88.40;;;;;;5071694;28;20025;-88
2022/08/28 07:59:23;;;;;;;4.80;1.35;;;16.60;87.50;;;;;;5051873;28;20143;-89
2022/08/28 08:01:50;;;;;;;6.50;1.05;;;16.60;87.40;;;;;;5074017;28;20032;-91
2022/08/28 08:04:18;;;;;;;5.82;0.85;;;16.70;87.40;;;;;;5073937;28;20021;-86
2022/08/28 08:06:45;;;;;;;2.92;1.00;;;16.70;87.00;;;;;;5080282;28;20029;-89
2022/08/28 08:09:14;;;;;;;4.22;0.77;;;16.80;86.80;;;;;;5074767;28;20028;-90
2022/08/28 08:11:41;;;;;;;3.22;0.70;;;16.80;86.40;;;;;;5069241;28;20148;-89
2022/08/28 08:14:07;;;;;;;2.60;0.52;;;16.90;85.90;;;;;;5058485;28;20029;-88
2022/08/28 08:16:37;;;;;;;8.25;0.90;;;17.00;85.30;;;;;;5057961;28;20108;-89
2022/08/28 08:19:03;;;;;;;3.33;0.75;;;17.00;84.70;;;;;;5057998;28;20124;-90
2022/08/28 08:21:30;;;;;;;10.00;1.02;;;17.10;84.30;;;;;;5056188;28;20017;-90
2022/08/28 08:23:55;;;;;;;3.35;0.93;;;17.20;83.70;;;;;;5040201;28;20033;-91
2022/08/28 08:26:26;;;;;;;6.47;0.70;;;17.30;83.20;;;;;;5056088;28;20060;-90
2022/08/28 08:28:52;;;;;;;8.30;0.90;;;17.40;82.70;;;;;;5056294;28;20051;-88
2022/08/28 08:31:31;;;;;;;5.05;0.98;;;17.50;82.30;;;;;;5056279;28;20056;-89
2022/08/28 08:34:01;;;;;;;3.80;0.77;;;17.60;81.90;;;;;;5056442;28;20485;-90
2022/08/28 08:36:28;;;;;;;4.30;0.77;;;17.70;81.60;;;;;;5056209;28;20032;-91
2022/08/28 08:38:55;;;;;;;2.72;0.60;;;17.80;81.00;;;;;;5057627;28;20040;-89
2022/08/28 08:41:36;;;;;;;3.47;1.00;;;17.80;80.50;;;;;;5056022;28;20021;-90
2022/08/28 08:44:04;;;;;;;3.17;0.80;;;17.90;80.10;;;;;;5057035;28;20477;-89
2022/08/28 08:47:11;;;;;;;4.22;0.70;;;18.00;79.70;;;;;;5056222;28;20028;-91
2022/08/28 08:49:40;;;;;;;2.42;0.50;;;18.10;79.10;;;;;;5044517;28;20123;-89
2022/08/28 08:52:06;;;;;;;3.75;0.70;;;18.20;79.00;;;;;;5056344;28;20025;-89
2022/08/28 08:54:32;;;;;;;5.07;0.60;;;18.30;78.80;;;;;;5056394;28;20059;-91
2022/08/28 08:57:01;;;;;;;5.90;0.55;;;18.40;78.40;;;;;;5055590;28;20056;-92
2022/08/28 08:59:30;;;;;;;4.55;0.77;;;18.50;77.90;;;;;;5038778;28;20592;-92
2022/08/28 09:02:10;;;;;;;3.47;0.70;;;18.60;77.50;;;;;;5039366;28;20036;-91
2022/08/28 09:04:50;;;;;;;2.63;0.63;;;18.70;77.00;;;;;;5056598;28;20021;-92
2022/08/28 09:07:19;;;;;;;4.82;1.20;;;18.80;76.50;;;;;;5056733;28;20029;-89
2022/08/28 09:09:53;;;;;;;3.35;0.90;;;18.90;76.20;;;;;;5055921;28;20067;-92
2022/08/28 09:12:25;;;;;;;4.25;0.70;;;19.10;75.80;;;;;;5056545;28;20032;-90
2022/08/28 09:15:08;;;;;;;4.05;0.85;;;19.10;75.70;;;;;;5056283;28;20029;-90
2022/08/28 09:17:40;;;;;;;3.55;0.73;;;19.20;75.30;;;;;;5054223;28;20672;-91
2022/08/28 09:20:08;;;;;;;4.30;0.70;;;19.30;75.10;;;;;;5057154;28;20051;-91
2022/08/28 09:22:42;;;;;;;2.88;0.52;;;19.40;74.50;;;;;;5055104;28;20469;-92
2022/08/28 09:25:08;;;;;;;;;;;19.50;73.90;;;;;;5057532;28;20060;-91
2022/08/28 09:27:34;;;;;;;4.32;0.80;;;19.60;73.80;;;;;;5055331;28;20261;-89
2022/08/28 09:30:09;;;;;;;2.33;0.57;;;19.70;73.90;;;;;;5055300;28;20029;-90
2022/08/28 09:32:40;;;;;;;2.95;0.75;;;19.80;73.20;;;;;;5038639;28;20037;-92
2022/08/28 09:35:18;;;;;;;4.63;0.55;;;19.90;72.70;;;;;;5055403;28;20465;-92
2022/08/28 09:37:43;;;;;;;2.30;0.50;;;20.00;72.10;;;;;;5054886;28;20029;-90
2022/08/28 09:43:27;;;;;;;4.60;0.70;;;20.20;71.30;;;;;;5056017;28;20056;-91
2022/08/28 09:46:17;;;;;;;3.72;0.52;;;20.30;71.60;;;;;;5055016;28;20021;-90
2022/08/28 09:48:46;;;;;;;3.05;0.68;;;20.50;70.20;;;;;;5055182;28;20025;-91
2022/08/28 09:51:21;;;;;;;4.45;0.95;;;20.60;70.10;;;;;;5055656;28;20481;-93
2022/08/28 09:53:49;;;;;;;5.70;0.80;;;20.70;69.40;;;;;;5054547;28;20507;-92
2022/08/28 09:56:34;;;;;;;2.25;0.60;;;20.80;68.90;;;;;;5055527;28;20059;-93
2022/08/28 09:59:09;;;;;;;5.03;1.00;;;20.80;68.30;;;;;;5056245;28;20056;-90
2022/08/28 10:01:40;;;;;;;4.70;0.60;;;20.90;67.60;;;;;;5056430;28;20025;-89
2022/08/28 10:04:27;;;;;;;4.53;0.60;;;20.90;67.00;;;;;;5057073;28;20024;-91
2022/08/28 10:07:07;;;;;;;3.97;0.60;;;21.00;66.30;;;;;;5054935;28;20029;-91
2022/08/28 10:09:59;;;;;;;2.83;0.80;;;21.00;65.90;;;;;;5057467;28;20017;-90
2022/08/28 10:13:02;;;;;;;2.90;0.77;;;21.00;65.60;;;;;;5041163;28;20033;-90
2022/08/28 10:15:40;;;;;;;5.15;0.75;;;21.10;64.90;;;;;;5056677;28;20074;-90
2022/08/28 10:18:24;;;;;;;3.60;0.80;;;21.10;64.60;;;;;;5056149;28;20037;-92
2022/08/28 10:21:15;;;;;;;2.03;0.60;;;21.20;64.20;;;;;;5056124;28;20465;-90
2022/08/28 10:23:47;;;;;;;3.75;0.80;;;21.30;64.10;;;;;;5058859;28;20032;-92
2022/08/28 10:26:15;;;;;;;3.65;0.68;;;21.50;64.00;;;;;;5056617;28;20035;-91
2022/08/28 10:28:50;;;;;;;3.13;0.65;;;21.70;63.50;;;;;;5057217;28;20029;-87
2022/08/28 10:31:38;;;;;;;3.03;0.60;;;21.80;62.90;;;;;;5054452;28;20063;-90
2022/08/28 10:34:22;;;;;;;3.67;0.60;;;22.10;62.50;;;;;;5055967;28;20029;-91
2022/08/28 10:37:02;;;;;;;1.58;0.40;;;22.40;62.60;;;;;;5054974;28;20051;-92
2022/08/28 10:39:46;;;;;;;3.50;0.75;;;22.60;62.00;;;;;;5055359;28;20481;-89
2022/08/28 10:42:18;;;;;;;3.20;0.60;;;22.80;61.20;;;;;;5054228;28;20385;-89
2022/08/28 10:44:49;;;;;;;4.32;0.50;;;22.90;61.00;;;;;;5054843;28;20025;-87
2022/08/28 10:47:18;;;;;;;5.47;0.88;;;22.90;60.20;;;;;;5055106;28;20139;-89
2022/08/28 10:49:48;;;;;;;2.65;0.60;;;23.10;59.80;;;;;;5054821;28;20687;-91
2022/08/28 10:52:53;;;;;;;1.98;0.43;;;23.10;59.30;;;;;;5053754;28;20021;-90
2022/08/28 10:55:31;;;;;;;1.70;0.50;;;23.20;58.70;;;;;;5053151;28;20049;-88
2022/08/28 10:58:01;;;;;;;2.80;0.52;;;23.30;58.90;;;;;;5054564;28;20500;-92
2022/08/28 11:00:27;;;;;;;2.30;0.47;;;23.60;58.80;;;;;;5055314;28;20055;-91
2022/08/28 11:02:59;;;;;;;4.72;0.70;;;23.80;58.30;;;;;;5037358;28;20033;-90
2022/08/28 11:05:33;;;;;;;2.22;0.52;;;23.90;57.70;;;;;;5054365;28;20095;-92
2022/08/28 11:08:07;;;;;;;2.30;0.53;;;24.00;57.40;;;;;;5053600;28;20103;-90
2022/08/28 11:10:35;;;;;;;2.25;0.43;;;24.20;57.10;;;;;;5054194;28;20028;-90
2022/08/28 11:13:03;;;;;;;2.72;0.50;;;24.50;57.00;;;;;;5053654;28;20017;-91
2022/08/28 11:15:30;;;;;;;2.17;0.50;;;24.80;56.60;;;;;;5054179;28;20104;-90
2022/08/28 11:18:27;;;;;;;2.70;0.68;;;24.90;56.00;;;;;;5054255;28;20033;-91
2022/08/28 11:20:58;;;;;;;2.35;0.70;;;25.10;54.80;;;;;;5053137;28;20087;-91
2022/08/28 11:23:40;;;;;;;5.18;0.55;;;25.10;54.90;;;;;;5054612;28;20031;-89
2022/08/28 11:26:11;;;;;;;2.92;0.50;;;25.10;54.90;;;;;;5052977;28;20100;-92
2022/08/28 11:28:45;;;;;;;2.58;0.52;;;25.10;54.20;;;;;;5052554;28;20092;-90
2022/08/28 11:31:13;;;;;;;4.63;0.55;;;25.00;53.90;;;;;;5052668;28;20082;-91
2022/08/28 11:33:51;;;;;;;3.03;0.52;;;25.10;53.80;;;;;;5053868;28;20025;-90
2022/08/28 11:36:22;;;;;;;3.40;0.70;;;25.30;53.70;;;;;;5053121;28;20021;-91
2022/08/28 11:38:51;;;;;;;2.30;0.50;;;25.60;53.50;;;;;;5054540;28;20087;-89
2022/08/28 11:41:26;;;;;;;1.95;0.50;;;25.90;53.00;;;;;;5056047;28;20530;-92
2022/08/28 11:44:07;;;;;;;4.45;0.70;;;26.20;52.60;;;;;;5057739;28;20031;-94
2022/08/28 11:46:37;;;;;;;2.42;0.82;;;26.40;51.40;;;;;;5064220;28;20021;-92
2022/08/28 11:49:22;;;;;;;2.17;0.45;;;26.50;51.60;;;;;;5065614;28;20461;-92
2022/08/28 11:51:47;;;;;;;2.47;0.43;;;26.40;50.80;;;;;;5064059;28;20036;-94
2022/08/28 11:54:31;;;;;;;4.05;0.60;;;26.40;50.90;;;;;;5062905;28;20029;-93
2022/08/28 11:57:12;;;;;;;3.72;0.57;;;26.30;50.60;;;;;;5076451;28;20028;-89
2022/08/28 12:00:01;;;;;;;3.22;0.77;;;26.20;50.40;;;;;;5075086;28;20044;-94
2022/08/28 12:02:39;;;;;;;3.28;0.65;;;26.30;50.30;;;;;;5063467;28;20025;-92
2022/08/28 12:05:11;;;;;;;4.45;0.80;;;26.50;50.10;;;;;;5074330;28;20111;-91
2022/08/28 12:07:40;;;;;;;2.53;0.50;;;26.60;49.90;;;;;;5079299;28;20036;-92
2022/08/28 12:10:21;;;;;;;3.67;0.60;;;26.80;49.70;;;;;;5079717;28;20067;-89
2022/08/28 12:12:47;;;;;;;1.98;0.50;;;27.10;49.40;;;;;;5078805;28;20033;-90
2022/08/28 12:15:28;;;;;;;2.25;0.47;;;27.40;49.50;;;;;;5078605;28;20025;-88
2022/08/28 12:18:01;;;;;;;2.15;0.68;;;27.80;48.60;;;;;;5076804;28;20098;-89
2022/08/28 12:20:29;;;;;;;1.60;0.63;;;28.00;48.40;;;;;;5077483;28;20165;-87
2022/08/28 12:22:59;;;;;;;2.15;0.60;;;28.10;47.70;;;;;;5076289;28;20472;-88
2022/08/28 12:25:36;;;;;;;5.93;1.40;;;28.20;47.40;;;;;;5067002;28;20020;-90
2022/08/28 12:28:21;;;;;;;2.53;0.63;;;28.40;46.90;;;;;;5059163;28;20060;-90
2022/08/28 12:30:58;;;;;;;3.10;0.80;;;28.40;46.20;;;;;;5057348;28;20025;-89
2022/08/28 12:33:56;;;;;;;1.98;0.50;;;28.60;46.30;;;;;;5055814;28;20047;-91
2022/08/28 12:36:27;;;;;;;2.72;0.60;;;28.80;45.90;;;;;;5056523;28;20033;-88
2022/08/28 12:38:55;;;;;;;2.80;0.47;;;29.20;46.20;;;;;;5039859;28;20064;-90
2022/08/28 12:41:23;;;;;;;2.13;0.60;;;29.50;45.60;;;;;;5056899;28;20100;-89
2022/08/28 12:43:52;;;;;;;2.35;0.55;;;29.80;44.90;;;;;;5055717;28;20017;-89
2022/08/28 12:46:28;;;;;;;2.28;0.50;;;30.00;44.30;;;;;;5055610;28;20082;-88
2022/08/28 12:49:00;;;;;;;1.90;0.68;;;30.00;43.80;;;;;;5055716;28;20542;-89
2022/08/28 12:51:35;;;;;;;2.30;0.70;;;30.00;43.90;;;;;;5057346;28;20397;-90
2022/08/28 12:54:07;;;;;;;3.03;0.70;;;29.90;43.50;;;;;;5057069;28;20108;-88
2022/08/28 12:56:35;;;;;;;4.10;0.60;;;29.70;43.60;;;;;;5055700;28;20365;-89
2022/08/28 12:59:32;;;;;;;2.70;0.50;;;29.60;43.60;;;;;;5057467;28;20537;-84
2022/08/28 13:02:18;;;;;;;2.47;0.60;;;29.40;43.50;;;;;;5065098;28;20059;-88
2022/08/28 13:05:09;;;;;;;1.92;0.40;;;29.30;43.40;;;;;;5073768;28;20079;-87
2022/08/28 13:07:39;;;;;;;2.65;0.50;;;29.10;43.20;;;;;;5073574;28;20013;-89
2022/08/28 13:10:34;;;;;;;2.00;0.60;;;29.10;43.30;;;;;;5069916;28;20055;-88
2022/08/28 13:13:03;;;;;;;1.77;0.40;;;29.10;42.80;;;;;;5062613;28;20055;-88